Aviation Digital Data Service (ADDS)

Output produced by METARs form (2351 UTC 22 July 2014)
found at http://aviationweather.gov/adds/metars/
 
KARA 222253Z 01004KT 10SM CLR 32/20 A2999 RMK AO2 SLP156 T03220200